Time;durP1;ratioP1;P1;durP2;ratioP2;P2;SDS_P1;SDS_P2;PMS_P1;PMS_P2;Temp;Humidity;BMP_temperature;BMP_pressure;BME280_temperature;BME280_humidity;BME280_pressure;Samples;Min_cycle;Max_cycle;Signal;HPM_P1;HPM_P2
2023/02/06 00:01:12;;;;;;;35.20;7.03;;;;;;;2.18;100.00;103406.22;4958171;28;20071;-78
2023/02/06 00:03:39;;;;;;;38.40;7.57;;;;;;;2.13;100.00;103406.34;4958519;29;20489;-76
2023/02/06 00:06:06;;;;;;;34.00;6.90;;;;;;;2.14;100.00;103402.03;4959645;28;20245;-79
2023/02/06 00:08:33;;;;;;;36.80;7.75;;;;;;;2.18;100.00;103398.47;4959118;28;20085;-78
2023/02/06 00:11:03;;;;;;;39.10;7.35;;;;;;;2.13;100.00;103397.72;4958914;28;20102;-79
2023/02/06 00:13:31;;;;;;;34.75;7.38;;;;;;;2.15;100.00;103388.22;4958783;28;20110;-79
2023/02/06 00:15:58;;;;;;;33.88;6.82;;;;;;;2.13;100.00;103396.00;4958411;28;20115;-78
2023/02/06 00:18:24;;;;;;;38.33;6.75;;;;;;;2.10;100.00;103395.22;4959004;28;20133;-78
2023/02/06 00:20:51;;;;;;;45.88;8.05;;;;;;;1.97;100.00;103399.78;4958769;29;20142;-76
2023/02/06 00:23:17;;;;;;;30.80;7.32;;;;;;;1.93;100.00;103401.59;4956869;28;20134;-77
2023/02/06 00:25:44;;;;;;;36.53;8.20;;;;;;;1.94;100.00;103397.28;4957822;28;20070;-79
2023/02/06 00:28:11;;;;;;;28.75;6.72;;;;;;;1.95;100.00;103391.22;4957289;28;20130;-76
2023/02/06 00:30:39;;;;;;;32.50;7.25;;;;;;;1.99;100.00;103395.44;4956084;29;20054;-79
2023/02/06 00:33:06;;;;;;;39.63;7.55;;;;;;;1.93;100.00;103393.84;4958155;28;20051;-78
2023/02/06 00:35:33;;;;;;;35.55;6.85;;;;;;;1.80;100.00;103389.84;4958180;28;20138;-78
2023/02/06 00:38:01;;;;;;;27.10;6.25;;;;;;;1.79;100.00;103395.88;4957454;28;20043;-77
2023/02/06 00:40:27;;;;;;;33.92;9.35;;;;;;;1.74;100.00;103397.72;4956412;28;20070;-78
2023/02/06 00:42:54;;;;;;;27.08;6.53;;;;;;;1.68;100.00;103387.50;4955982;29;20043;-77
2023/02/06 00:45:21;;;;;;;27.98;6.88;;;;;;;1.66;100.00;103392.72;4955358;28;20094;-76
2023/02/06 00:47:49;;;;;;;41.67;8.48;;;;;;;1.72;100.00;103398.63;4955982;29;20433;-79
2023/02/06 00:50:15;;;;;;;42.05;7.30;;;;;;;1.67;100.00;103389.25;4956262;28;20134;-78
2023/02/06 00:52:42;;;;;;;52.20;7.50;;;;;;;1.67;100.00;103384.09;4955367;28;20524;-77
2023/02/06 00:55:09;;;;;;;39.80;7.50;;;;;;;1.52;100.00;103386.97;4954073;28;20057;-77
2023/02/06 00:57:35;;;;;;;40.10;7.45;;;;;;;1.53;100.00;103380.06;4955595;28;20047;-77
2023/02/06 01:00:02;;;;;;;36.70;7.25;;;;;;;1.40;100.00;103382.06;4955466;28;20395;-77
2023/02/06 01:02:28;;;;;;;30.17;6.45;;;;;;;1.32;100.00;103397.69;4955418;29;20137;-77
2023/02/06 01:04:56;;;;;;;31.77;7.65;;;;;;;1.20;100.00;103385.03;4955085;28;20469;-75
2023/02/06 01:07:23;;;;;;;34.72;8.13;;;;;;;1.10;100.00;103377.47;4954589;28;20137;-76
2023/02/06 01:09:50;;;;;;;41.33;7.40;;;;;;;1.11;100.00;103384.34;4955188;29;20069;-77
2023/02/06 01:12:16;;;;;;;39.47;6.85;;;;;;;1.04;100.00;103387.91;4958049;28;20118;-77
2023/02/06 01:14:43;;;;;;;37.15;7.35;;;;;;;0.88;100.00;103398.50;4956778;28;20240;-77
2023/02/06 01:17:10;;;;;;;30.65;7.82;;;;;;;0.80;100.00;103389.19;4955221;28;20107;-78
2023/02/06 01:19:37;;;;;;;40.75;9.90;;;;;;;0.73;100.00;103403.91;4957255;28;20101;-77
2023/02/06 01:22:05;;;;;;;38.05;8.95;;;;;;;0.69;100.00;103391.94;4957941;28;20101;-78
2023/02/06 01:24:32;;;;;;;62.88;14.30;;;;;;;0.76;100.00;103396.13;4956743;28;20138;-78
2023/02/06 01:26:58;;;;;;;60.83;16.60;;;;;;;0.76;100.00;103403.84;4956153;28;20580;-78
2023/02/06 01:29:25;;;;;;;62.80;16.13;;;;;;;0.80;100.00;103400.34;4956376;29;20091;-77
2023/02/06 01:31:52;;;;;;;46.45;11.45;;;;;;;0.93;100.00;103404.44;4955835;29;20115;-78
2023/02/06 01:34:18;;;;;;;49.80;10.73;;;;;;;1.04;100.00;103405.94;4954865;28;20474;-78
2023/02/06 01:36:45;;;;;;;43.92;8.98;;;;;;;1.19;100.00;103410.84;4955667;29;20126;-78
2023/02/06 01:39:13;;;;;;;39.55;9.23;;;;;;;1.20;100.00;103403.06;4955453;28;20137;-77
2023/02/06 01:41:39;;;;;;;54.70;9.32;;;;;;;1.25;100.00;103413.31;4955429;28;20126;-78
2023/02/06 01:44:10;;;;;;;40.45;8.23;;;;;;;1.23;100.00;103415.91;4955431;28;20134;-78
2023/02/06 01:46:37;;;;;;;40.65;7.88;;;;;;;1.22;100.00;103418.53;4955085;28;20095;-78
2023/02/06 01:49:05;;;;;;;32.33;7.18;;;;;;;1.18;100.00;103422.03;4955849;28;20111;-77
2023/02/06 01:51:32;;;;;;;34.13;7.45;;;;;;;1.14;100.00;103416.06;4955944;28;20197;-78
2023/02/06 01:54:02;;;;;;;45.55;7.47;;;;;;;1.06;100.00;103417.09;4954983;28;20054;-76
2023/02/06 01:56:33;;;;;;;31.63;6.80;;;;;;;0.90;100.00;103417.38;4954703;28;20134;-77
2023/02/06 01:59:04;;;;;;;36.83;6.95;;;;;;;0.79;100.00;103418.41;4950297;29;20055;-78
2023/02/06 02:01:31;;;;;;;40.67;7.13;;;;;;;0.65;100.00;103413.47;4950361;28;20046;-78
2023/02/06 02:04:04;;;;;;;37.47;7.72;;;;;;;0.55;100.00;103419.66;4951079;28;20067;-78
2023/02/06 02:06:31;;;;;;;36.67;9.43;;;;;;;0.43;100.00;103415.56;4954703;28;20075;-77
2023/02/06 02:08:58;;;;;;;38.42;9.30;;;;;;;0.37;100.00;103425.09;4954494;29;20055;-77
2023/02/06 02:11:31;;;;;;;39.58;9.07;;;;;;;0.23;100.00;103433.00;4957746;28;20545;-78
2023/02/06 02:13:58;;;;;;;41.42;7.80;;;;;;;0.15;100.00;103420.22;4954541;28;20067;-79
2023/02/06 02:16:34;;;;;;;42.25;11.02;;;;;;;0.06;100.00;103432.38;4959165;28;20114;-78
2023/02/06 02:19:21;;;;;;;38.67;7.78;;;;;;;-0.03;100.00;103438.50;4954325;29;20050;-78
2023/02/06 02:22:20;;;;;;;31.88;8.20;;;;;;;0.02;100.00;103433.28;4958065;29;20488;-78
2023/02/06 02:25:31;;;;;;;44.83;9.18;;;;;;;0.05;100.00;103428.94;4958490;28;20137;-79
2023/02/06 02:28:34;;;;;;;41.63;8.73;;;;;;;0.00;100.00;103423.84;4916890;28;20047;-78
2023/02/06 02:31:18;;;;;;;34.30;8.35;;;;;;;0.00;100.00;103425.59;4953783;29;20488;-75
2023/02/06 02:34:17;;;;;;;34.25;10.48;;;;;;;-0.05;100.00;103412.78;4958092;28;20463;-78
2023/02/06 02:36:52;;;;;;;31.38;7.85;;;;;;;0.06;100.00;103415.19;4957837;29;20122;-75
2023/02/06 02:39:24;;;;;;;33.85;8.30;;;;;;;0.07;100.00;103411.75;4958415;28;20417;-76
2023/02/06 02:41:59;;;;;;;35.25;7.40;;;;;;;0.11;100.00;103400.53;4958075;28;20134;-75
2023/02/06 02:44:35;;;;;;;46.22;8.70;;;;;;;0.15;100.00;103394.47;4959451;28;20541;-76
2023/02/06 02:47:07;;;;;;;43.50;8.63;;;;;;;0.12;100.00;103403.97;4954566;29;20047;-77
2023/02/06 02:49:36;;;;;;;42.53;9.27;;;;;;;0.07;100.00;103406.59;4957855;28;20138;-74
2023/02/06 02:52:05;;;;;;;53.67;9.77;;;;;;;0.07;100.00;103405.75;4957969;28;20178;-76
2023/02/06 02:54:31;;;;;;;47.35;9.43;;;;;;;0.03;100.00;103399.78;4957337;28;20047;-76
2023/02/06 02:57:05;;;;;;;45.72;9.32;;;;;;;0.07;100.00;103406.59;4954329;29;20234;-77
2023/02/06 02:59:36;;;;;;;40.13;8.90;;;;;;;0.03;100.00;103404.09;4957738;28;20149;-78
2023/02/06 03:02:09;;;;;;;46.03;9.40;;;;;;;0.01;100.00;103414.41;4957920;28;20134;-78
2023/02/06 03:04:39;;;;;;;;;;;;;;;0.09;100.00;103420.31;4958207;28;20530;-76
2023/02/06 03:07:16;;;;;;;50.45;11.82;;;;;;;0.14;100.00;103421.09;4957452;29;20009;-77
2023/02/06 03:09:53;;;;;;;45.78;10.20;;;;;;;0.05;100.00;103428.94;4957804;29;20139;-77
2023/02/06 03:12:26;;;;;;;42.58;11.90;;;;;;;0.07;100.00;103436.66;4957586;29;20131;-77
2023/02/06 03:14:59;;;;;;;41.55;10.68;;;;;;;0.05;100.00;103441.81;4957218;28;20423;-76
2023/02/06 03:17:33;;;;;;;43.00;11.07;;;;;;;-0.04;100.00;103447.97;4956821;29;20043;-76
2023/02/06 03:20:02;;;;;;;60.63;11.48;;;;;;;-0.08;100.00;103450.59;4951465;29;20126;-78
2023/02/06 03:22:32;;;;;;;47.17;11.75;;;;;;;-0.10;100.00;103444.59;4956215;28;20061;-78
2023/02/06 03:25:01;;;;;;;39.67;11.30;;;;;;;-0.13;100.00;103440.34;4950756;28;20157;-79
2023/02/06 03:27:29;;;;;;;49.30;11.10;;;;;;;-0.11;100.00;103440.34;4957910;29;20129;-77
2023/02/06 03:29:58;;;;;;;38.53;10.57;;;;;;;-0.21;100.00;103441.31;4957210;28;20083;-76
2023/02/06 03:32:32;;;;;;;38.80;10.55;;;;;;;-0.22;100.00;103437.03;4956310;28;20066;-76
2023/02/06 03:35:03;;;;;;;50.65;10.73;;;;;;;-0.32;100.00;103435.44;4951152;28;20118;-77
2023/02/06 03:37:32;;;;;;;34.00;10.05;;;;;;;-0.36;100.00;103427.75;4956359;29;20089;-77
2023/02/06 03:40:01;;;;;;;39.70;11.30;;;;;;;-0.40;100.00;103426.06;4951492;29;20134;-77
2023/02/06 03:42:30;;;;;;;41.50;10.52;;;;;;;-0.45;100.00;103424.41;4957611;29;20138;-77
2023/02/06 03:45:00;;;;;;;41.47;11.50;;;;;;;-0.52;100.00;103421.09;4956520;28;20134;-77
2023/02/06 03:47:29;;;;;;;52.72;10.45;;;;;;;-0.48;100.00;103425.34;4956413;28;20134;-77
2023/02/06 03:50:00;;;;;;;46.45;11.30;;;;;;;-0.44;100.00;103429.53;4956885;29;20426;-78
2023/02/06 03:52:31;;;;;;;56.78;12.23;;;;;;;-0.41;100.00;103428.66;4957131;29;20203;-81
2023/02/06 03:55:03;;;;;;;50.67;11.05;;;;;;;-0.41;100.00;103424.38;4959401;28;20138;-76
2023/02/06 03:57:31;;;;;;;51.15;11.77;;;;;;;-0.46;100.00;103423.56;4959457;29;20139;-76
2023/02/06 03:59:58;;;;;;;43.63;11.77;;;;;;;-0.47;100.00;103428.72;4953072;29;20057;-78
2023/02/06 04:02:25;;;;;;;44.28;10.63;;;;;;;-0.54;100.00;103422.81;4958501;28;20471;-78
2023/02/06 04:04:52;;;;;;;49.33;10.73;;;;;;;-0.61;100.00;103421.19;4957202;28;20137;-77
2023/02/06 04:07:23;;;;;;;53.10;10.93;;;;;;;-0.59;100.00;103424.59;4958407;29;20066;-79
2023/02/06 04:09:49;;;;;;;51.38;10.88;;;;;;;-0.59;100.00;103424.59;4958579;29;20077;-79
2023/02/06 04:12:18;;;;;;;51.22;11.07;;;;;;;-0.67;100.00;103413.53;4958046;29;20053;-79
2023/02/06 04:14:45;;;;;;;49.67;10.73;;;;;;;-0.71;100.00;103414.44;4957965;28;20142;-79
2023/02/06 04:17:12;;;;;;;50.92;11.23;;;;;;;-0.77;100.00;103415.34;4957375;29;20051;-76
2023/02/06 04:19:39;;;;;;;39.97;9.75;;;;;;;-0.83;100.00;103417.09;4957981;29;20071;-79
2023/02/06 04:22:07;;;;;;;42.67;11.20;;;;;;;-0.91;100.00;103422.31;4957789;28;20051;-78
2023/02/06 04:24:34;;;;;;;39.47;10.68;;;;;;;-0.98;100.00;103422.41;4956958;28;20130;-80
2023/02/06 04:27:00;;;;;;;43.55;10.10;;;;;;;-1.03;100.00;103414.75;4958009;28;20066;-79
2023/02/06 04:29:29;;;;;;;51.75;12.32;;;;;;;-0.99;100.00;103429.28;4963026;28;20083;-78
2023/02/06 04:32:00;;;;;;;47.78;11.85;;;;;;;-1.00;100.00;103437.84;4961957;29;20121;-79
2023/02/06 04:34:27;;;;;;;40.25;10.63;;;;;;;-0.95;100.00;103435.25;4955407;28;20541;-78
2023/02/06 04:36:54;;;;;;;50.03;11.07;;;;;;;-0.82;100.00;103442.81;4960941;28;20074;-78
2023/02/06 04:39:21;;;;;;;49.58;12.43;;;;;;;-0.71;100.00;103442.72;4960809;29;20058;-79
2023/02/06 04:41:47;;;;;;;46.70;12.15;;;;;;;-0.58;100.00;103449.44;4954324;29;20051;-78
2023/02/06 04:44:14;;;;;;;50.20;11.68;;;;;;;-0.46;100.00;103451.84;4953338;28;20484;-76
2023/02/06 04:46:42;;;;;;;46.55;12.50;;;;;;;-0.36;100.00;103448.31;4953017;29;20131;-79
2023/02/06 04:49:09;;;;;;;47.95;15.40;;;;;;;-0.29;100.00;103443.13;4953641;29;20413;-77
2023/02/06 04:51:36;;;;;;;54.92;13.57;;;;;;;-0.18;100.00;103456.72;4956792;28;20134;-78
2023/02/06 04:54:04;;;;;;;56.15;13.95;;;;;;;-0.14;100.00;103450.66;4957684;28;20110;-79
2023/02/06 05:53:29;;;;;;;62.70;15.95;;;;;;;0.80;100.00;103451.91;4962583;28;20461;-78
2023/02/06 05:55:56;;;;;;;61.83;16.92;;;;;;;0.86;100.00;103461.25;4960450;28;20085;-80
2023/02/06 05:58:28;;;;;;;47.22;16.80;;;;;;;0.82;100.00;103455.31;4960076;28;20104;-78
2023/02/06 06:04:22;;;;;;;53.03;16.73;;;;;;;0.86;100.00;103456.97;4958152;28;20059;-79
2023/02/06 06:06:49;;;;;;;50.58;16.52;;;;;;;0.86;100.00;103441.50;5002236;23;20452;-79
2023/02/06 06:09:17;;;;;;;61.60;18.25;;;;;;;0.96;100.00;103443.03;4999232;28;20133;-80
2023/02/06 06:11:43;;;;;;;56.33;16.83;;;;;;;0.90;100.00;103450.88;5000029;28;20485;-78
2023/02/06 06:14:11;;;;;;;60.42;18.73;;;;;;;0.90;100.00;103438.00;4999575;28;20062;-80
2023/02/06 06:16:39;;;;;;;69.55;19.40;;;;;;;0.91;100.00;103437.13;5000331;28;20138;-80
2023/02/06 06:19:06;;;;;;;65.60;19.10;;;;;;;0.82;100.00;103428.69;5001053;28;20046;-80
2023/02/06 06:21:33;;;;;;;65.30;19.20;;;;;;;0.90;100.00;103425.09;4997261;28;20592;-80
2023/02/06 06:24:00;;;;;;;68.03;19.13;;;;;;;0.87;100.00;103426.88;5002919;28;20050;-79
2023/02/06 06:26:28;;;;;;;56.90;17.77;;;;;;;0.87;100.00;103426.88;5002747;28;20046;-82
2023/02/06 06:28:55;;;;;;;62.95;19.25;;;;;;;0.86;100.00;103433.75;5002822;28;20172;-81
2023/02/06 06:31:22;;;;;;;56.83;18.50;;;;;;;0.88;100.00;103437.16;5001436;28;20520;-79
2023/02/06 06:33:49;;;;;;;64.82;18.63;;;;;;;0.88;100.00;103433.75;5002353;28;20074;-81
2023/02/06 06:36:15;;;;;;;64.18;20.02;;;;;;;0.88;100.00;103432.00;5002594;28;20084;-80
2023/02/06 06:38:42;;;;;;;66.75;20.63;;;;;;;0.84;100.00;103443.25;5003745;28;20069;-79
2023/02/06 06:41:09;;;;;;;61.83;20.30;;;;;;;0.92;100.00;103441.41;5005894;28;20508;-79
2023/02/06 06:43:37;;;;;;;63.83;18.45;;;;;;;0.98;100.00;103451.59;5005854;28;20424;-78
2023/02/06 06:46:04;;;;;;;63.65;19.00;;;;;;;0.95;100.00;103454.22;5005915;28;20085;-80
2023/02/06 06:48:32;;;;;;;72.88;20.92;;;;;;;1.02;100.00;103454.09;5006232;28;20114;-79
2023/02/06 06:50:58;;;;;;;67.45;20.48;;;;;;;0.90;100.00;103450.03;5005745;28;20088;-80
2023/02/06 06:53:25;;;;;;;71.40;20.70;;;;;;;0.95;100.00;103455.94;5000355;28;20054;-81
2023/02/06 06:55:52;;;;;;;89.75;22.80;;;;;;;0.96;100.00;103457.63;5005285;28;20137;-82
2023/02/06 06:58:18;;;;;;;68.82;20.10;;;;;;;0.92;100.00;103443.97;4999507;28;20042;-81
2023/02/06 07:00:46;;;;;;;79.63;21.15;;;;;;;1.02;100.00;103451.53;5000752;28;20105;-80
2023/02/06 07:03:13;;;;;;;78.43;21.70;;;;;;;1.05;100.00;103448.91;5003137;28;20050;-81
2023/02/06 07:05:40;;;;;;;82.22;22.55;;;;;;;0.98;100.00;103446.44;4999368;28;20070;-79
2023/02/06 07:08:07;;;;;;;82.88;23.13;;;;;;;0.91;100.00;103444.84;5002438;28;20064;-80
2023/02/06 07:10:33;;;;;;;83.13;21.95;;;;;;;0.87;100.00;103447.50;5002508;28;20050;-80
2023/02/06 07:13:00;;;;;;;92.72;24.58;;;;;;;0.90;100.00;103442.28;4997679;28;20132;-79
2023/02/06 07:15:27;;;;;;;87.80;22.63;;;;;;;0.89;100.00;103435.44;4997559;28;20074;-80
2023/02/06 07:17:55;;;;;;;97.05;25.88;;;;;;;0.93;100.00;103435.38;4997657;28;20502;-80
2023/02/06 07:20:24;;;;;;;106.90;24.50;;;;;;;0.96;100.00;103443.03;4995427;28;20081;-81
2023/02/06 07:22:52;;;;;;;112.22;26.88;;;;;;;0.98;100.00;103443.84;4996001;28;20540;-78
2023/02/06 07:25:19;;;;;;;104.88;28.52;;;;;;;1.04;100.00;103436.88;4993422;28;20505;-78
2023/02/06 07:27:46;;;;;;;106.85;29.30;;;;;;;1.08;100.00;103441.97;4998740;28;20102;-81
2023/02/06 07:30:13;;;;;;;109.60;26.58;;;;;;;1.15;100.00;103442.72;4991633;28;20118;-79
2023/02/06 07:32:40;;;;;;;131.32;30.85;;;;;;;1.19;100.00;103447.78;4989700;28;20586;-79
2023/02/06 07:35:08;;;;;;;122.85;26.67;;;;;;;1.19;100.00;103446.94;4999727;28;20077;-80
2023/02/06 07:37:35;;;;;;;121.85;27.60;;;;;;;1.23;100.00;103452.03;4999979;28;20535;-81
2023/02/06 07:40:20;;;;;;;114.53;28.75;;;;;;;1.22;100.00;103449.47;4993353;28;20047;-78
2023/02/06 07:42:47;;;;;;;126.82;27.90;;;;;;;1.18;100.00;103447.81;4997126;28;20473;-78
2023/02/06 07:45:15;;;;;;;108.85;27.30;;;;;;;1.21;100.00;103447.78;4990197;28;20051;-80
2023/02/06 07:48:08;;;;;;;107.68;28.25;;;;;;;1.31;100.00;103445.00;5002432;28;20078;-80
2023/02/06 07:51:05;;;;;;;98.03;26.02;;;;;;;1.33;100.00;103443.25;5002480;28;20062;-81
2023/02/06 07:54:03;;;;;;;99.95;25.35;;;;;;;1.18;100.00;103438.34;5001993;28;20062;-79
2023/02/06 07:56:47;;;;;;;102.30;26.65;;;;;;;1.33;100.00;103445.81;4996403;28;20047;-80
2023/02/06 07:59:43;;;;;;;;;;;;;;;1.39;100.00;103457.78;5007463;28;20058;-79
2023/02/06 08:02:52;;;;;;;81.93;24.42;;;;;;;1.46;100.00;103446.44;4990376;28;19937;-79
2023/02/06 08:05:19;;;;;;;111.32;25.08;;;;;;;1.34;100.00;103426.03;4991536;28;20060;-78
2023/02/06 08:07:47;;;;;;;97.85;25.33;;;;;;;1.57;100.00;103447.09;4994854;28;20426;-78
2023/02/06 08:10:17;;;;;;;98.35;27.30;;;;;;;1.42;100.00;103416.41;4998411;28;20106;-79
2023/02/06 08:12:44;;;;;;;84.93;24.65;;;;;;;1.50;100.00;103434.31;5000155;28;20085;-79
2023/02/06 08:15:11;;;;;;;99.40;25.25;;;;;;;1.44;100.00;103440.44;4997350;28;20050;-79
2023/02/06 08:17:37;;;;;;;109.80;27.02;;;;;;;1.58;100.00;103445.34;4998543;28;20050;-79
2023/02/06 08:20:04;;;;;;;96.47;26.65;;;;;;;1.75;100.00;103450.19;4998580;28;20086;-79
2023/02/06 08:22:31;;;;;;;91.97;25.75;;;;;;;1.74;100.00;103446.75;4998709;28;20137;-78
2023/02/06 08:24:59;;;;;;;127.00;26.15;;;;;;;1.69;100.00;103447.72;4997600;28;20429;-80
2023/02/06 08:27:26;;;;;;;99.28;24.27;;;;;;;1.70;100.00;103447.69;4997318;28;20061;-78
2023/02/06 08:29:52;;;;;;;98.88;26.45;;;;;;;1.76;100.00;103457.06;4997968;28;20043;-79
2023/02/06 08:32:19;;;;;;;107.63;25.08;;;;;;;1.80;100.00;103454.38;4997838;28;20136;-80
2023/02/06 08:34:46;;;;;;;91.28;23.55;;;;;;;1.83;100.00;103444.00;4997582;28;20364;-81
2023/02/06 08:37:12;;;;;;;86.93;24.35;;;;;;;1.89;100.00;103453.34;4996084;28;20544;-81
2023/02/06 08:39:39;;;;;;;111.90;24.00;;;;;;;1.85;100.00;103454.31;4995408;28;20133;-79
2023/02/06 08:42:07;;;;;;;86.45;23.85;;;;;;;2.05;100.00;103457.31;4997742;28;20169;-80
2023/02/06 08:44:33;;;;;;;78.43;23.88;;;;;;;2.09;100.00;103465.84;4997392;28;20133;-82
2023/02/06 08:47:00;;;;;;;76.90;22.13;;;;;;;2.09;100.00;103456.34;4997865;28;20129;-80
2023/02/06 08:49:27;;;;;;;81.57;25.17;;;;;;;2.11;100.00;103448.56;4997629;28;20416;-80
2023/02/06 08:51:54;;;;;;;72.25;22.00;;;;;;;2.16;100.00;103441.59;4997842;28;20058;-81
2023/02/06 08:54:23;;;;;;;79.60;23.17;;;;;;;2.19;100.00;103432.03;4997224;28;20297;-80
2023/02/06 08:56:50;;;;;;;74.72;24.52;;;;;;;2.10;100.00;103444.28;4997887;28;20109;-81
2023/02/06 08:59:19;;;;;;;69.43;22.05;;;;;;;2.09;100.00;103446.03;4997304;28;20093;-79
2023/02/06 09:01:47;;;;;;;79.68;23.63;;;;;;;2.07;100.00;103441.78;4997288;28;20134;-80
2023/02/06 09:04:15;;;;;;;70.13;22.27;;;;;;;2.17;100.00;103458.78;4998732;28;20089;-80
2023/02/06 09:06:45;;;;;;;73.63;22.08;;;;;;;2.16;100.00;103457.94;4997194;28;20125;-80
2023/02/06 09:09:13;;;;;;;78.13;24.92;;;;;;;2.32;100.00;103461.03;4997786;28;20050;-81
2023/02/06 09:11:40;;;;;;;80.15;23.30;;;;;;;2.27;100.00;103457.72;4996826;28;20117;-81
2023/02/06 09:14:07;;;;;;;75.88;22.83;;;;;;;2.21;100.00;103460.41;4997011;28;20070;-80
2023/02/06 09:16:36;;;;;;;69.28;23.00;;;;;;;2.10;100.00;103452.91;4997726;28;20122;-80
2023/02/06 09:19:03;;;;;;;70.85;22.10;;;;;;;2.07;100.00;103446.94;4998972;28;20050;-80
2023/02/06 09:21:32;;;;;;;71.00;22.75;;;;;;;2.20;100.00;103458.72;4997496;28;20543;-79
2023/02/06 09:24:01;;;;;;;78.80;22.95;;;;;;;2.01;100.00;103450.50;5002532;28;20043;-79
2023/02/06 09:26:29;;;;;;;75.22;22.85;;;;;;;2.18;100.00;103453.59;4998167;28;20089;-78
2023/02/06 09:28:57;;;;;;;72.18;22.60;;;;;;;2.40;100.00;103448.78;4998003;28;20113;-79
2023/02/06 09:31:25;;;;;;;66.15;24.08;;;;;;;2.48;100.00;103443.44;4995399;28;20105;-80
2023/02/06 09:33:53;;;;;;;83.38;25.05;;;;;;;2.51;100.00;103464.03;4997254;28;20088;-80
2023/02/06 09:36:21;;;;;;;68.80;22.00;;;;;;;2.45;100.00;103456.44;4997663;28;20116;-81
2023/02/06 09:38:49;;;;;;;76.32;21.95;;;;;;;2.43;100.00;103446.13;4998850;28;20515;-79
2023/02/06 09:41:22;;;;;;;66.93;22.85;;;;;;;2.51;100.00;103444.22;4998384;28;20058;-80
2023/02/06 09:43:50;;;;;;;;;;;;;;;2.55;100.00;103445.84;4999218;28;20297;-81
2023/02/06 09:46:22;;;;;;;71.47;24.05;;;;;;;2.58;100.00;103450.09;4998918;28;20339;-81
2023/02/06 09:48:50;;;;;;;70.38;24.90;;;;;;;2.64;100.00;103452.53;4999549;28;20050;-80
2023/02/06 09:51:27;;;;;;;72.50;22.75;;;;;;;2.77;100.00;103448.78;4994628;28;20110;-80
2023/02/06 09:54:04;;;;;;;67.78;22.58;;;;;;;2.76;100.00;103449.66;4998224;28;20074;-81
2023/02/06 09:56:38;;;;;;;71.47;24.63;;;;;;;2.85;100.00;103454.59;4999729;28;20074;-80
2023/02/06 09:59:12;;;;;;;64.60;22.42;;;;;;;2.73;100.00;103454.91;4991038;28;20050;-81
2023/02/06 10:01:44;;;;;;;58.58;21.85;;;;;;;2.93;100.00;103452.69;4997771;28;20077;-81
2023/02/06 10:04:37;;;;;;;58.75;24.17;;;;;;;3.15;100.00;103459.91;4999158;28;20110;-81
2023/02/06 10:07:20;;;;;;;59.80;22.92;;;;;;;3.40;100.00;103458.38;4998255;28;20101;-81
2023/02/06 10:09:51;;;;;;;50.03;21.33;;;;;;;3.42;100.00;103461.75;4999007;28;20043;-81
2023/02/06 10:12:23;;;;;;;50.30;21.08;;;;;;;3.54;100.00;103466.63;4998361;28;20141;-82
2023/02/06 10:14:56;;;;;;;48.05;19.65;;;;;;;3.64;100.00;103459.47;4998814;28;20051;-81
2023/02/06 10:17:25;;;;;;;51.75;21.45;;;;;;;3.73;100.00;103460.94;4998137;28;20092;-81
2023/02/06 10:19:58;;;;;;;47.60;21.55;;;;;;;3.77;100.00;103454.78;4998451;28;20054;-81
2023/02/06 10:22:34;;;;;;;49.25;20.67;;;;;;;3.73;100.00;103450.59;4998860;28;20575;-80
2023/02/06 10:25:17;;;;;;;45.72;20.67;;;;;;;3.87;100.00;103456.19;4999098;28;20074;-81
2023/02/06 10:27:45;;;;;;;;;;;;;;;4.04;100.00;103456.56;5000066;28;20057;-82
2023/02/06 10:30:16;;;;;;;44.75;20.27;;;;;;;4.06;100.00;103449.59;5001911;28;19921;-80
2023/02/06 10:32:54;;;;;;;43.50;19.20;;;;;;;3.99;100.00;103450.69;5002119;28;20050;-79
2023/02/06 10:35:35;;;;;;;44.75;17.33;;;;;;;4.06;99.44;103438.38;5001576;28;20050;-80
2023/02/06 10:38:32;;;;;;;43.25;17.98;;;;;;;4.00;98.13;103439.41;4993954;28;20432;-80
2023/02/06 10:41:07;;;;;;;40.05;18.30;;;;;;;4.01;97.78;103446.28;5001371;28;20476;-80
2023/02/06 10:43:42;;;;;;;41.90;18.00;;;;;;;4.18;97.69;103444.06;5002366;28;20105;-82
2023/02/06 10:46:28;;;;;;;40.20;17.17;;;;;;;3.90;97.24;103441.41;5001325;28;20156;-82
2023/02/06 10:49:00;;;;;;;40.83;15.93;;;;;;;3.91;97.29;103435.34;5001736;28;20137;-80
2023/02/06 10:51:31;;;;;;;36.67;17.47;;;;;;;4.13;96.60;103429.53;5002188;28;20125;-81
2023/02/06 10:54:02;;;;;;;38.80;17.20;;;;;;;4.43;96.77;103417.38;5001252;28;20115;-81
2023/02/06 10:56:33;;;;;;;36.35;16.33;;;;;;;4.70;95.53;103415.66;5001530;28;20090;-81
2023/02/06 10:59:02;;;;;;;38.22;15.65;;;;;;;4.64;94.63;103411.50;5001636;28;20074;-79
2023/02/06 11:01:34;;;;;;;33.90;15.73;;;;;;;4.52;95.23;103404.97;5001380;28;20216;-81
2023/02/06 11:04:10;;;;;;;32.10;16.27;;;;;;;4.65;94.70;103393.31;5001149;28;20395;-80
2023/02/06 11:06:41;;;;;;;35.92;17.20;;;;;;;4.57;94.63;103391.84;5000248;28;20074;-80
2023/02/06 11:09:10;;;;;;;40.42;20.27;;;;;;;4.37;94.45;103397.66;5001999;28;20088;-81
2023/02/06 11:11:39;;;;;;;50.03;22.52;;;;;;;4.53;94.65;103398.88;5001847;28;20105;-80
2023/02/06 11:14:14;;;;;;;47.75;22.38;;;;;;;4.53;94.36;103390.25;4999949;28;20133;-82
2023/02/06 11:16:44;;;;;;;50.47;22.38;;;;;;;4.52;93.90;103386.81;5000489;28;20121;-79
2023/02/06 11:19:17;;;;;;;48.95;23.48;;;;;;;4.84;93.77;103390.94;5000773;28;20050;-79
2023/02/06 11:21:51;;;;;;;44.63;20.52;;;;;;;5.09;93.15;103387.50;4992183;28;20046;-80
2023/02/06 11:24:21;;;;;;;42.70;20.90;;;;;;;5.21;92.64;103394.84;4999951;28;20077;-78
2023/02/06 11:26:52;;;;;;;42.67;19.13;;;;;;;4.58;91.84;103380.59;5000195;28;20055;-80
2023/02/06 11:29:21;;;;;;;44.33;19.08;;;;;;;4.74;92.36;103379.16;4999071;28;20472;-82
2023/02/06 11:31:52;;;;;;;34.80;16.70;;;;;;;5.03;92.28;103382.53;5000870;28;20414;-79
2023/02/06 11:34:25;;;;;;;27.77;14.75;;;;;;;4.95;92.17;103375.00;4992896;28;20085;-81
2023/02/06 11:36:54;;;;;;;26.80;13.52;;;;;;;4.63;92.02;103368.31;5000416;28;20086;-80
2023/02/06 11:39:26;;;;;;;32.03;13.07;;;;;;;4.40;92.31;103357.84;4999847;28;20080;-80
2023/02/06 11:41:58;;;;;;;32.95;13.25;;;;;;;4.18;92.42;103361.13;5000956;28;20076;-79
2023/02/06 11:44:26;;;;;;;32.30;13.98;;;;;;;4.51;92.85;103366.97;5000640;28;20535;-79
2023/02/06 11:46:53;;;;;;;30.40;14.35;;;;;;;4.47;92.36;103354.16;5000116;28;20581;-81
2023/02/06 11:49:28;;;;;;;30.65;14.38;;;;;;;4.87;92.23;103356.25;5001273;28;20078;-81
2023/02/06 11:51:58;;;;;;;37.72;14.07;;;;;;;4.74;91.99;103342.00;5000720;28;20073;-81
2023/02/06 11:54:29;;;;;;;29.95;14.23;;;;;;;4.89;91.60;103354.44;5000349;28;20166;-82
2023/02/06 11:56:59;;;;;;;35.90;16.50;;;;;;;4.77;92.09;103355.72;4999529;28;20430;-81
2023/02/06 11:59:26;;;;;;;32.95;13.85;;;;;;;4.76;92.15;103348.81;5000217;28;20136;-81
2023/02/06 12:01:53;;;;;;;41.25;15.95;;;;;;;4.61;91.16;103339.00;5001914;28;20050;-81
2023/02/06 12:04:23;;;;;;;38.20;15.23;;;;;;;4.54;91.12;103345.28;4999542;28;20140;-80
2023/02/06 12:06:54;;;;;;;32.78;14.80;;;;;;;4.58;90.78;103331.31;5000078;28;20086;-80
2023/02/06 12:09:21;;;;;;;34.40;15.38;;;;;;;4.40;91.02;103329.31;4998757;28;20129;-82
2023/02/06 12:11:53;;;;;;;40.22;15.85;;;;;;;4.53;91.43;103335.81;4999809;28;20218;-79
2023/02/06 12:14:23;;;;;;;36.00;15.85;;;;;;;4.78;91.49;103328.88;4999806;28;20106;-80
2023/02/06 12:16:51;;;;;;;33.25;16.23;;;;;;;4.76;90.39;103325.47;4999015;28;20121;-81
2023/02/06 12:19:23;;;;;;;39.55;15.52;;;;;;;4.85;90.95;103332.94;4998770;28;20114;-79
2023/02/06 12:21:52;;;;;;;35.85;16.00;;;;;;;4.63;90.96;103338.03;4998868;28;20130;-81
2023/02/06 12:24:30;;;;;;;37.10;15.68;;;;;;;4.52;89.89;103339.28;4998630;28;20567;-80
2023/02/06 12:27:02;;;;;;;37.17;15.80;;;;;;;4.19;90.83;103334.31;4998774;28;20133;-80